Time;durP1;ratioP1;P1;durP2;ratioP2;P2;SDS_P1;SDS_P2;PMS_P1;PMS_P2;Temp;Humidity;BMP_temperature;BMP_pressure;BME280_temperature;BME280_humidity;BME280_pressure;Samples;Min_cycle;Max_cycle;Signal;HPM_P1;HPM_P2
2021/03/11 00:01:43;;;;;;;30.73;17.08;;;;;;;;;;5116330;28;20232;-69
2021/03/11 00:04:10;;;;;;;23.40;16.10;;;;;;;;;;5116935;28;20193;-69
2021/03/11 00:06:37;;;;;;;26.90;18.52;;;;;;;;;;5116572;28;20318;-70
2021/03/11 00:09:05;;;;;;;27.30;18.23;;;;;;;;;;5116554;28;20301;-69
2021/03/11 00:11:32;;;;;;;26.20;16.75;;;;;;;;;;5116684;28;20226;-70
2021/03/11 00:13:59;;;;;;;30.35;18.67;;;;;;;;;;5116797;28;20258;-69
2021/03/11 00:16:25;;;;;;;27.08;19.20;;;;;;;;;;5116092;28;20235;-68
2021/03/11 00:18:52;;;;;;;23.58;16.23;;;;;;;;;;5116796;28;20575;-69
2021/03/11 00:21:19;;;;;;;28.08;17.50;;;;;;;;;;5115951;28;20234;-69
2021/03/11 00:23:46;;;;;;;23.85;16.60;;;;;;;;;;5116347;28;20731;-70
2021/03/11 00:26:13;;;;;;;31.25;18.85;;;;;;;;;;5115857;28;20759;-69
2021/03/11 00:28:40;;;;;;;26.58;18.20;;;;;;;;;;5116206;28;20262;-68
2021/03/11 00:31:07;;;;;;;23.65;17.02;;;;;;;;;;5116533;28;20232;-69
2021/03/11 00:33:33;;;;;;;20.63;15.30;;;;;;;;;;5115783;28;20203;-68
2021/03/11 00:36:00;;;;;;;23.92;15.35;;;;;;;;;;5115712;28;20247;-69
2021/03/11 00:38:27;;;;;;;24.13;15.75;;;;;;;;;;5115917;28;20233;-69
2021/03/11 00:40:54;;;;;;;25.48;16.00;;;;;;;;;;5115612;28;20203;-68
2021/03/11 00:43:21;;;;;;;23.92;17.15;;;;;;;;;;5116770;28;20277;-69
2021/03/11 00:45:49;;;;;;;21.77;16.38;;;;;;;;;;5116568;28;20232;-68
2021/03/11 00:48:16;;;;;;;26.35;16.15;;;;;;;;;;5115837;28;20204;-69
2021/03/11 00:50:42;;;;;;;24.92;17.10;;;;;;;;;;5115373;28;20194;-68
2021/03/11 00:53:09;;;;;;;25.23;17.65;;;;;;;;;;5115392;28;20669;-69
2021/03/11 00:55:36;;;;;;;29.48;19.13;;;;;;;;;;5114964;28;20558;-69
2021/03/11 00:58:03;;;;;;;28.90;17.55;;;;;;;;;;5115300;28;20674;-69
2021/03/11 01:00:31;;;;;;;24.30;17.50;;;;;;;;;;5115753;28;20536;-69
2021/03/11 01:02:58;;;;;;;23.65;17.55;;;;;;;;;;5115179;28;20235;-68
2021/03/11 01:05:25;;;;;;;25.27;19.40;;;;;;;;;;5115160;28;20206;-68
2021/03/11 01:07:52;;;;;;;28.33;17.75;;;;;;;;;;5114985;28;20219;-69
2021/03/11 01:10:19;;;;;;;30.77;18.25;;;;;;;;;;5115547;28;20548;-69
2021/03/11 01:12:46;;;;;;;32.95;19.67;;;;;;;;;;5115653;28;20570;-69
2021/03/11 01:15:13;;;;;;;30.48;19.15;;;;;;;;;;5115442;28;20197;-68
2021/03/11 01:17:41;;;;;;;30.13;17.55;;;;;;;;;;5115072;28;20197;-68
2021/03/11 01:20:09;;;;;;;29.60;18.98;;;;;;;;;;5115459;28;20200;-69
2021/03/11 01:22:36;;;;;;;29.70;18.85;;;;;;;;;;5114769;28;20279;-68
2021/03/11 01:25:04;;;;;;;24.17;16.55;;;;;;;;;;5114786;28;20197;-69
2021/03/11 01:27:30;;;;;;;31.15;19.85;;;;;;;;;;5114587;28;20217;-69
2021/03/11 01:29:57;;;;;;;31.52;17.33;;;;;;;;;;5114639;28;20198;-69
2021/03/11 01:32:24;;;;;;;33.08;19.63;;;;;;;;;;5114566;28;20198;-69
2021/03/11 01:34:52;;;;;;;25.33;18.77;;;;;;;;;;5114579;28;20224;-69
2021/03/11 01:37:19;;;;;;;27.13;18.15;;;;;;;;;;5114560;28;20199;-69
2021/03/11 01:39:46;;;;;;;29.80;17.80;;;;;;;;;;5114447;28;20660;-69
2021/03/11 01:42:13;;;;;;;24.70;18.48;;;;;;;;;;5114407;28;20199;-69
2021/03/11 01:44:39;;;;;;;29.30;17.30;;;;;;;;;;5114410;28;20648;-72
2021/03/11 01:47:06;;;;;;;30.00;18.55;;;;;;;;;;5114166;28;20310;-69
2021/03/11 01:49:33;;;;;;;31.80;19.27;;;;;;;;;;5114296;28;20664;-69
2021/03/11 01:52:02;;;;;;;30.65;16.25;;;;;;;;;;5114250;28;20235;-69
2021/03/11 01:54:29;;;;;;;27.75;19.77;;;;;;;;;;5114537;28;20205;-69
2021/03/11 01:56:56;;;;;;;25.10;17.17;;;;;;;;;;5114182;28;20293;-69
2021/03/11 01:59:22;;;;;;;27.05;20.67;;;;;;;;;;5114543;28;20232;-69
2021/03/11 02:01:49;;;;;;;28.98;17.23;;;;;;;;;;5114099;28;20229;-69
2021/03/11 02:04:16;;;;;;;27.65;18.73;;;;;;;;;;5114041;28;20284;-69
2021/03/11 02:06:43;;;;;;;28.33;19.35;;;;;;;;;;5113674;28;20304;-69
2021/03/11 02:09:10;;;;;;;24.20;17.45;;;;;;;;;;5114000;28;20287;-70
2021/03/11 02:11:38;;;;;;;21.02;14.95;;;;;;;;;;5114284;28;20245;-70
2021/03/11 02:14:07;;;;;;;34.63;18.67;;;;;;;;;;5114401;28;20618;-70
2021/03/11 02:16:35;;;;;;;26.52;16.80;;;;;;;;;;5114843;28;20284;-70
2021/03/11 02:19:07;;;;;;;25.70;16.85;;;;;;;;;;5114934;28;20617;-69
2021/03/11 02:21:37;;;;;;;28.55;18.15;;;;;;;;;;5114372;28;20281;-70
2021/03/11 02:24:17;;;;;;;25.75;17.13;;;;;;;;;;5114457;28;20284;-69
2021/03/11 02:27:02;;;;;;;25.25;15.93;;;;;;;;;;5114020;28;20240;-70
2021/03/11 02:29:31;;;;;;;22.48;16.38;;;;;;;;;;5113839;28;20268;-69
2021/03/11 02:31:59;;;;;;;24.98;16.00;;;;;;;;;;5114010;28;20256;-70
2021/03/11 02:34:29;;;;;;;22.33;14.90;;;;;;;;;;5113984;28;20194;-68
2021/03/11 02:36:57;;;;;;;22.50;14.15;;;;;;;;;;5114135;28;20676;-68
2021/03/11 02:39:24;;;;;;;23.70;15.18;;;;;;;;;;5114062;28;20302;-68
2021/03/11 02:41:52;;;;;;;20.10;14.20;;;;;;;;;;5114029;28;20648;-68
2021/03/11 02:44:20;;;;;;;24.15;15.70;;;;;;;;;;5113895;28;20200;-68
2021/03/11 02:46:49;;;;;;;22.73;14.27;;;;;;;;;;5113857;28;20645;-68
2021/03/11 02:49:16;;;;;;;19.88;14.25;;;;;;;;;;5113895;28;20569;-70
2021/03/11 02:51:43;;;;;;;18.70;12.90;;;;;;;;;;5113590;28;20282;-70
2021/03/11 02:54:10;;;;;;;26.45;14.75;;;;;;;;;;5113551;28;20284;-69
2021/03/11 02:56:38;;;;;;;21.20;14.10;;;;;;;;;;5113777;28;20293;-69
2021/03/11 02:59:06;;;;;;;23.13;14.60;;;;;;;;;;5113822;28;20282;-69
2021/03/11 03:01:33;;;;;;;19.33;14.32;;;;;;;;;;5113785;28;20315;-69
2021/03/11 03:04:01;;;;;;;20.45;14.07;;;;;;;;;;5113665;28;20276;-69
2021/03/11 03:06:28;;;;;;;21.55;15.32;;;;;;;;;;5113373;28;20246;-69
2021/03/11 03:08:55;;;;;;;19.30;13.77;;;;;;;;;;5113347;28;20293;-69
2021/03/11 03:11:23;;;;;;;23.63;15.35;;;;;;;;;;5113557;28;20281;-69
2021/03/11 03:13:50;;;;;;;19.42;14.10;;;;;;;;;;5114085;28;20309;-69
2021/03/11 03:16:18;;;;;;;18.55;14.55;;;;;;;;;;5113425;28;20202;-70
2021/03/11 03:18:46;;;;;;;17.95;12.90;;;;;;;;;;5117136;28;20378;-69
2021/03/11 03:21:14;;;;;;;23.58;15.52;;;;;;;;;;5117295;28;20282;-69
2021/03/11 03:23:41;;;;;;;19.92;12.55;;;;;;;;;;5117441;28;20283;-69
2021/03/11 03:26:08;;;;;;;22.83;12.00;;;;;;;;;;5116997;28;20247;-69
2021/03/11 03:28:35;;;;;;;21.38;12.82;;;;;;;;;;5117361;28;20288;-69
2021/03/11 03:31:01;;;;;;;20.25;12.77;;;;;;;;;;5117000;28;20284;-68
2021/03/11 03:33:28;;;;;;;18.67;12.68;;;;;;;;;;5117275;28;20286;-68
2021/03/11 03:35:55;;;;;;;21.38;11.90;;;;;;;;;;5116933;28;20289;-69
2021/03/11 03:38:23;;;;;;;16.05;10.77;;;;;;;;;;5117201;28;20226;-69
2021/03/11 03:40:49;;;;;;;16.20;10.90;;;;;;;;;;5117272;28;20221;-69
2021/03/11 03:43:19;;;;;;;18.10;11.77;;;;;;;;;;5117364;28;20280;-69
2021/03/11 03:45:48;;;;;;;17.55;12.32;;;;;;;;;;5116988;28;20236;-69
2021/03/11 03:48:16;;;;;;;14.68;10.70;;;;;;;;;;5116841;28;20700;-69
2021/03/11 03:50:45;;;;;;;13.30;10.45;;;;;;;;;;5117052;28;20340;-69
2021/03/11 03:53:16;;;;;;;18.75;11.85;;;;;;;;;;5116980;28;20277;-69
2021/03/11 03:55:45;;;;;;;16.50;11.63;;;;;;;;;;5117094;28;20186;-69
2021/03/11 03:58:13;;;;;;;19.08;11.57;;;;;;;;;;5116882;28;20195;-69
2021/03/11 04:00:40;;;;;;;15.77;11.82;;;;;;;;;;5116723;28;20230;-69
2021/03/11 04:03:07;;;;;;;16.00;11.27;;;;;;;;;;5116360;28;20235;-68
2021/03/11 04:05:34;;;;;;;19.45;12.30;;;;;;;;;;5116324;28;20251;-69
2021/03/11 04:08:02;;;;;;;18.20;11.15;;;;;;;;;;5116221;28;20220;-68
2021/03/11 04:10:30;;;;;;;13.50;10.23;;;;;;;;;;5116278;28;20229;-68
2021/03/11 04:12:57;;;;;;;16.95;12.55;;;;;;;;;;5115955;28;20728;-68
2021/03/11 04:15:24;;;;;;;13.75;11.10;;;;;;;;;;5116948;28;20285;-68
2021/03/11 04:17:51;;;;;;;14.07;9.27;;;;;;;;;;5116308;28;20298;-69
2021/03/11 04:20:18;;;;;;;15.93;11.13;;;;;;;;;;5117209;28;20280;-69
2021/03/11 04:22:46;;;;;;;15.13;11.00;;;;;;;;;;5115976;28;20283;-69
2021/03/11 04:25:13;;;;;;;15.40;11.05;;;;;;;;;;5116932;28;20222;-69
2021/03/11 04:27:40;;;;;;;16.25;11.43;;;;;;;;;;5115836;28;20319;-69
2021/03/11 04:30:08;;;;;;;13.15;10.10;;;;;;;;;;5114778;28;20719;-69
2021/03/11 04:32:35;;;;;;;15.27;11.50;;;;;;;;;;5115836;28;20685;-69
2021/03/11 04:35:02;;;;;;;12.05;10.02;;;;;;;;;;5116120;28;20281;-69
2021/03/11 04:37:29;;;;;;;16.23;11.50;;;;;;;;;;5116140;28;20239;-68
2021/03/11 04:39:56;;;;;;;13.80;10.57;;;;;;;;;;5116067;28;20280;-68
2021/03/11 04:42:23;;;;;;;12.48;9.20;;;;;;;;;;5115606;28;20280;-68
2021/03/11 04:44:50;;;;;;;11.25;8.15;;;;;;;;;;5115910;28;20301;-68
2021/03/11 04:47:18;;;;;;;8.60;7.70;;;;;;;;;;5115517;28;20316;-68
2021/03/11 04:49:45;;;;;;;12.00;10.57;;;;;;;;;;5116381;28;20212;-68
2021/03/11 04:52:12;;;;;;;12.90;11.07;;;;;;;;;;5115420;28;20224;-68
2021/03/11 04:54:38;;;;;;;11.10;9.40;;;;;;;;;;5115362;28;20203;-69
2021/03/11 04:57:06;;;;;;;12.05;9.95;;;;;;;;;;5115366;28;20288;-69
2021/03/11 04:59:33;;;;;;;12.45;11.15;;;;;;;;;;5115287;28;20282;-68
2021/03/11 05:02:02;;;;;;;9.95;8.95;;;;;;;;;;5115799;28;20291;-70
2021/03/11 05:04:29;;;;;;;12.85;9.68;;;;;;;;;;5115217;28;20726;-68
2021/03/11 05:06:56;;;;;;;11.77;9.95;;;;;;;;;;5115368;28;20359;-70
2021/03/11 05:09:23;;;;;;;14.98;9.88;;;;;;;;;;5115306;28;20196;-70
2021/03/11 05:11:49;;;;;;;13.18;11.07;;;;;;;;;;5115168;28;20258;-69
2021/03/11 05:14:16;;;;;;;12.88;10.35;;;;;;;;;;5115905;28;20582;-70
2021/03/11 05:16:43;;;;;;;10.43;9.32;;;;;;;;;;5131649;27;20198;-69
2021/03/11 05:19:10;;;;;;;11.73;9.55;;;;;;;;;;5134373;27;20283;-68
2021/03/11 05:21:37;;;;;;;11.40;9.98;;;;;;;;;;5134511;27;20275;-68
2021/03/11 05:24:04;;;;;;;12.23;10.60;;;;;;;;;;5134545;27;20289;-68
2021/03/11 05:26:31;;;;;;;14.40;9.60;;;;;;;;;;5135137;27;20260;-69
2021/03/11 05:28:58;;;;;;;16.52;10.48;;;;;;;;;;5134564;27;20233;-69
2021/03/11 05:31:25;;;;;;;14.80;11.60;;;;;;;;;;5134540;27;20282;-68
2021/03/11 05:33:51;;;;;;;14.02;10.68;;;;;;;;;;5134352;27;20735;-69
2021/03/11 05:36:18;;;;;;;14.38;10.55;;;;;;;;;;5134793;27;20290;-69
2021/03/11 05:38:46;;;;;;;14.13;11.02;;;;;;;;;;5135182;27;20274;-69
2021/03/11 05:41:14;;;;;;;12.68;10.75;;;;;;;;;;5134821;27;20232;-67
2021/03/11 05:43:41;;;;;;;14.52;12.57;;;;;;;;;;5134853;27;20192;-68
2021/03/11 05:46:08;;;;;;;13.10;10.90;;;;;;;;;;5132986;27;20185;-63
2021/03/11 05:48:37;;;;;;;14.10;11.85;;;;;;;;;;5134390;27;20284;-64
2021/03/11 05:51:03;;;;;;;14.07;11.23;;;;;;;;;;5134397;27;20284;-64
2021/03/11 05:53:31;;;;;;;14.93;12.65;;;;;;;;;;5134308;27;20629;-64
2021/03/11 05:55:59;;;;;;;14.40;10.75;;;;;;;;;;5133823;27;20281;-64
2021/03/11 05:58:26;;;;;;;13.18;11.48;;;;;;;;;;5133456;27;20198;-64
2021/03/11 06:00:53;;;;;;;16.98;12.65;;;;;;;;;;5133695;27;20283;-64
2021/03/11 06:03:20;;;;;;;12.65;10.48;;;;;;;;;;5133889;27;20189;-63
2021/03/11 06:05:46;;;;;;;16.60;10.52;;;;;;;;;;5133737;27;20227;-64
2021/03/11 06:08:13;;;;;;;20.63;10.98;;;;;;;;;;5133982;27;20225;-64
2021/03/11 06:10:42;;;;;;;12.73;10.77;;;;;;;;;;5134047;27;20197;-64
2021/03/11 06:13:11;;;;;;;14.30;9.90;;;;;;;;;;5134275;27;20315;-64
2021/03/11 06:15:38;;;;;;;12.50;10.60;;;;;;;;;;5131747;27;20228;-64
2021/03/11 06:18:06;;;;;;;11.35;10.13;;;;;;;;;;5134550;27;20530;-65
2021/03/11 06:20:33;;;;;;;8.98;7.38;;;;;;;;;;5134369;27;20195;-64
2021/03/11 06:22:59;;;;;;;10.68;9.20;;;;;;;;;;5134639;27;20285;-64
2021/03/11 06:25:28;;;;;;;10.38;9.10;;;;;;;;;;5134079;27;20232;-64
2021/03/11 06:27:54;;;;;;;11.35;9.63;;;;;;;;;;5134037;27;20244;-64
2021/03/11 06:30:32;;;;;;;11.38;7.70;;;;;;;;;;5134188;27;20197;-65
2021/03/11 06:32:59;;;;;;;9.77;8.77;;;;;;;;;;5134147;27;20239;-64
2021/03/11 06:35:26;;;;;;;10.13;8.95;;;;;;;;;;5135060;28;20323;-65
2021/03/11 06:37:53;;;;;;;9.73;7.75;;;;;;;;;;5134548;28;20281;-73
2021/03/11 06:40:20;;;;;;;9.55;8.55;;;;;;;;;;5134155;28;20194;-65
2021/03/11 06:42:48;;;;;;;12.05;9.10;;;;;;;;;;5134105;28;20286;-65
2021/03/11 06:45:22;;;;;;;13.55;9.00;;;;;;;;;;5133996;28;20280;-66
2021/03/11 06:47:49;;;;;;;9.73;7.38;;;;;;;;;;5134586;28;20265;-65
2021/03/11 06:50:16;;;;;;;10.25;8.10;;;;;;;;;;5134255;28;20280;-65
2021/03/11 06:53:00;;;;;;;7.20;6.18;;;;;;;;;;5136554;27;20189;-65
2021/03/11 06:55:27;;;;;;;8.90;7.70;;;;;;;;;;5138696;27;20236;-65
2021/03/11 06:57:54;;;;;;;8.95;7.53;;;;;;;;;;5138601;27;20251;-65
2021/03/11 07:00:22;;;;;;;8.38;6.35;;;;;;;;;;5138126;27;20201;-66
2021/03/11 07:02:53;;;;;;;8.43;7.07;;;;;;;;;;5138364;27;20230;-65
2021/03/11 07:05:20;;;;;;;10.27;6.97;;;;;;;;;;5138828;27;20631;-65
2021/03/11 07:07:47;;;;;;;8.52;6.75;;;;;;;;;;5138183;27;20249;-66
2021/03/11 07:10:24;;;;;;;8.18;7.18;;;;;;;;;;5138326;27;20202;-66
2021/03/11 07:12:51;;;;;;;9.88;8.05;;;;;;;;;;5138359;27;20230;-65
2021/03/11 07:15:19;;;;;;;7.53;6.72;;;;;;;;;;5138335;27;20276;-66
2021/03/11 07:17:45;;;;;;;10.85;7.00;;;;;;;;;;5138200;27;20584;-65
2021/03/11 07:20:15;;;;;;;8.93;6.20;;;;;;;;;;5138264;27;20194;-65
2021/03/11 07:22:42;;;;;;;10.82;7.88;;;;;;;;;;5137918;27;20199;-65
2021/03/11 07:25:24;;;;;;;7.53;6.78;;;;;;;;;;5137600;27;20203;-65
2021/03/11 07:27:51;;;;;;;8.43;6.78;;;;;;;;;;5134089;27;20306;-65
2021/03/11 07:30:18;;;;;;;8.25;7.03;;;;;;;;;;5137677;27;20548;-65
2021/03/11 07:32:45;;;;;;;7.80;7.10;;;;;;;;;;5137906;27;20190;-66
2021/03/11 07:35:17;;;;;;;8.93;6.82;;;;;;;;;;5137217;27;20286;-66
2021/03/11 07:37:48;;;;;;;7.72;6.82;;;;;;;;;;5137802;27;20193;-65
2021/03/11 07:40:15;;;;;;;10.45;7.63;;;;;;;;;;5137237;27;20194;-65
2021/03/11 07:42:42;;;;;;;7.40;6.20;;;;;;;;;;5137515;27;20342;-66
2021/03/11 07:45:11;;;;;;;8.98;6.65;;;;;;;;;;5137658;27;20199;-65
2021/03/11 07:47:38;;;;;;;9.30;7.38;;;;;;;;;;5137150;27;20246;-66
2021/03/11 07:50:08;;;;;;;10.10;8.45;;;;;;;;;;5137968;27;20622;-66
2021/03/11 07:52:35;;;;;;;9.55;7.95;;;;;;;;;;5137810;27;20194;-65
2021/03/11 07:55:04;;;;;;;9.77;7.22;;;;;;;;;;5137539;27;20199;-65
2021/03/11 07:57:32;;;;;;;10.00;7.90;;;;;;;;;;5136971;27;20669;-66
2021/03/11 07:59:59;;;;;;;9.18;7.72;;;;;;;;;;5136932;27;20206;-66
2021/03/11 08:02:26;;;;;;;7.40;6.50;;;;;;;;;;5136851;27;20249;-65
2021/03/11 08:04:53;;;;;;;8.55;7.75;;;;;;;;;;5137060;27;20290;-66
2021/03/11 08:07:21;;;;;;;10.80;7.45;;;;;;;;;;5136650;27;20268;-66
2021/03/11 08:09:49;;;;;;;7.93;6.70;;;;;;;;;;5137434;27;20188;-66
2021/03/11 08:12:29;;;;;;;10.50;9.27;;;;;;;;;;5137071;27;20206;-65
2021/03/11 08:14:56;;;;;;;9.25;8.20;;;;;;;;;;5137334;27;20198;-65
2021/03/11 08:17:42;;;;;;;10.60;9.50;;;;;;;;;;5136930;27;20218;-65
2021/03/11 08:20:09;;;;;;;10.73;8.90;;;;;;;;;;5136565;27;20203;-65
2021/03/11 08:22:55;;;;;;;13.35;10.80;;;;;;;;;;5137475;27;20222;-65
2021/03/11 08:25:46;;;;;;;9.48;7.10;;;;;;;;;;5136894;27;20198;-65
2021/03/11 08:28:37;;;;;;;11.23;9.85;;;;;;;;;;5111854;27;20395;-65
2021/03/11 08:31:05;;;;;;;10.88;8.90;;;;;;;;;;5112050;27;20667;-66
2021/03/11 08:33:46;;;;;;;9.35;8.10;;;;;;;;;;5136954;27;20198;-65
2021/03/11 08:36:40;;;;;;;9.82;8.85;;;;;;;;;;5136743;27;20257;-66
2021/03/11 08:39:28;;;;;;;9.63;7.95;;;;;;;;;;5136210;27;20240;-66
2021/03/11 08:41:55;;;;;;;9.98;8.98;;;;;;;;;;5137091;27;20219;-67
2021/03/11 08:44:40;;;;;;;11.15;8.27;;;;;;;;;;5136808;27;20256;-66
2021/03/11 08:47:11;;;;;;;9.75;8.75;;;;;;;;;;5136175;27;20321;-66
2021/03/11 08:49:39;;;;;;;9.48;8.50;;;;;;;;;;5136032;27;20217;-66
2021/03/11 08:52:06;;;;;;;11.27;8.60;;;;;;;;;;5135887;27;20228;-66
2021/03/11 08:54:33;;;;;;;8.40;7.47;;;;;;;;;;5136415;27;20250;-66
2021/03/11 08:57:00;;;;;;;11.68;8.98;;;;;;;;;;5136490;27;20236;-66
2021/03/11 08:59:47;;;;;;;8.30;7.50;;;;;;;;;;5135796;27;20238;-66
2021/03/11 09:02:32;;;;;;;7.80;6.80;;;;;;;;;;5136029;27;20226;-66
2021/03/11 09:04:59;;;;;;;8.40;7.03;;;;;;;;;;5135957;27;20490;-66
2021/03/11 09:07:29;;;;;;;10.48;6.50;;;;;;;;;;5135863;27;20224;-67
2021/03/11 09:09:57;;;;;;;6.15;4.95;;;;;;;;;;5135488;27;20206;-66
2021/03/11 09:12:25;;;;;;;9.80;6.50;;;;;;;;;;5135392;27;20683;-65
2021/03/11 09:14:53;;;;;;;9.00;6.47;;;;;;;;;;5134916;27;20440;-66
2021/03/11 09:17:21;;;;;;;8.20;5.87;;;;;;;;;;5135571;27;20940;-68
2021/03/11 09:19:49;;;;;;;7.57;6.73;;;;;;;;;;5135498;27;20440;-68
2021/03/11 09:22:26;;;;;;;9.53;6.70;;;;;;;;;;5135779;27;20433;-66
2021/03/11 09:24:57;;;;;;;7.83;5.70;;;;;;;;;;5135808;27;20433;-66
2021/03/11 09:27:23;;;;;;;7.25;6.38;;;;;;;;;;5135160;27;20483;-66
2021/03/11 09:29:50;;;;;;;9.87;5.60;;;;;;;;;;5135492;27;20196;-66
2021/03/11 09:32:17;;;;;;;7.70;6.55;;;;;;;;;;5135489;27;20930;-66
2021/03/11 09:34:55;;;;;;;8.87;5.07;;;;;;;;;;5135341;27;20196;-67
2021/03/11 09:37:36;;;;;;;9.73;7.33;;;;;;;;;;5134992;27;20962;-67
2021/03/11 09:40:03;;;;;;;7.60;5.43;;;;;;;;;;5134331;27;20506;-66
2021/03/11 09:42:30;;;;;;;7.17;4.60;;;;;;;;;;5135475;27;20471;-66
2021/03/11 09:44:57;;;;;;;6.37;4.47;;;;;;;;;;5135181;27;20442;-68
2021/03/11 09:47:28;;;;;;;10.00;5.70;;;;;;;;;;5135118;27;20579;-66
2021/03/11 09:50:05;;;;;;;9.03;4.80;;;;;;;;;;5135361;27;20457;-66
2021/03/11 09:52:32;;;;;;;5.40;4.30;;;;;;;;;;5134834;27;20463;-66
2021/03/11 09:54:59;;;;;;;7.47;5.40;;;;;;;;;;5134959;27;20441;-66
2021/03/11 09:57:26;;;;;;;6.50;4.83;;;;;;;;;;5134935;27;20499;-67
2021/03/11 09:59:53;;;;;;;5.73;4.70;;;;;;;;;;5134879;27;20551;-66
2021/03/11 10:02:19;;;;;;;5.50;4.07;;;;;;;;;;5134766;27;20440;-66
2021/03/11 10:04:46;;;;;;;8.33;4.63;;;;;;;;;;5135557;27;20468;-66
2021/03/11 10:07:14;;;;;;;17.47;5.20;;;;;;;;;;5135303;27;20501;-66
2021/03/11 10:09:42;;;;;;;12.07;4.80;;;;;;;;;;5135536;27;20466;-66
2021/03/11 10:12:09;;;;;;;5.43;3.87;;;;;;;;;;5134522;27;20476;-66
2021/03/11 10:14:37;;;;;;;5.67;4.50;;;;;;;;;;5134340;27;20903;-66
2021/03/11 10:17:04;;;;;;;7.47;3.80;;;;;;;;;;5134772;27;20889;-65
2021/03/11 10:19:32;;;;;;;11.87;4.57;;;;;;;;;;5134469;27;20481;-66
2021/03/11 10:22:02;;;;;;;6.57;4.23;;;;;;;;;;5134753;27;20490;-67
2021/03/11 10:24:37;;;;;;;7.53;3.90;;;;;;;;;;5134581;27;20514;-66
2021/03/11 10:27:04;;;;;;;8.80;4.50;;;;;;;;;;5133615;27;20461;-66
2021/03/11 10:29:32;;;;;;;8.17;3.80;;;;;;;;;;5134602;27;20496;-66
2021/03/11 10:32:00;;;;;;;7.93;3.77;;;;;;;;;;5134339;27;20481;-67
2021/03/11 10:34:27;;;;;;;9.63;3.37;;;;;;;;;;5134156;28;20923;-67
2021/03/11 10:36:57;;;;;;;10.77;3.67;;;;;;;;;;5134626;28;20449;-67
2021/03/11 10:39:24;;;;;;;6.40;3.40;;;;;;;;;;5134762;28;20477;-66
2021/03/11 10:42:02;;;;;;;7.40;3.37;;;;;;;;;;5134771;28;20503;-66
2021/03/11 10:44:30;;;;;;;10.17;3.20;;;;;;;;;;5134393;28;20442;-66
2021/03/11 10:47:12;;;;;;;5.63;2.57;;;;;;;;;;5134172;28;20560;-67
2021/03/11 10:49:41;;;;;;;9.67;3.93;;;;;;;;;;5134067;28;20422;-66
2021/03/11 10:52:08;;;;;;;4.50;2.90;;;;;;;;;;5133979;28;20453;-66
2021/03/11 10:54:35;;;;;;;10.83;3.17;;;;;;;;;;5134285;28;20473;-67
2021/03/11 10:57:06;;;;;;;8.30;3.87;;;;;;;;;;5134601;28;20953;-66
2021/03/11 10:59:46;;;;;;;10.30;3.27;;;;;;;;;;5133992;28;20442;-65
2021/03/11 11:02:13;;;;;;;7.40;3.50;;;;;;;;;;5134308;28;20466;-68
2021/03/11 11:04:41;;;;;;;5.63;2.43;;;;;;;;;;5134344;28;20990;-70
2021/03/11 11:07:08;;;;;;;5.57;2.63;;;;;;;;;;5134107;28;20476;-69
2021/03/11 11:09:35;;;;;;;12.27;2.70;;;;;;;;;;5134136;28;20465;-68
2021/03/11 11:12:02;;;;;;;20.27;5.37;;;;;;;;;;5133576;28;20488;-67
2021/03/11 11:14:29;;;;;;;6.87;3.80;;;;;;;;;;5134086;28;20440;-68
2021/03/11 11:16:56;;;;;;;17.37;5.73;;;;;;;;;;5134054;28;20448;-66
2021/03/11 11:19:23;;;;;;;13.10;3.23;;;;;;;;;;5133754;28;20449;-67
2021/03/11 11:21:49;;;;;;;11.53;3.00;;;;;;;;;;5134070;28;20533;-67
2021/03/11 11:24:16;;;;;;;11.00;3.93;;;;;;;;;;5133731;28;20499;-67
2021/03/11 11:26:43;;;;;;;8.43;2.80;;;;;;;;;;5133606;28;20438;-68
2021/03/11 11:29:10;;;;;;;10.73;3.70;;;;;;;;;;5133611;28;20532;-67
2021/03/11 11:31:37;;;;;;;12.20;3.57;;;;;;;;;;5133865;28;20528;-68
2021/03/11 11:34:04;;;;;;;10.40;3.40;;;;;;;;;;5134361;28;20450;-69
2021/03/11 11:36:31;;;;;;;12.77;3.47;;;;;;;;;;5134654;28;20478;-67
2021/03/11 11:38:58;;;;;;;8.93;2.60;;;;;;;;;;5135690;27;20445;-69
2021/03/11 11:41:24;;;;;;;8.03;3.00;;;;;;;;;;5137608;27;20480;-67
2021/03/11 11:43:51;;;;;;;8.20;2.83;;;;;;;;;;5137794;27;20585;-68
2021/03/11 11:46:18;;;;;;;7.63;3.07;;;;;;;;;;5137459;27;20496;-68
2021/03/11 11:48:45;;;;;;;7.10;2.30;;;;;;;;;;5137168;27;20520;-68
2021/03/11 11:51:12;;;;;;;7.20;2.40;;;;;;;;;;5137366;27;20792;-69
2021/03/11 11:53:39;;;;;;;12.93;2.80;;;;;;;;;;5137348;27;20492;-68
2021/03/11 11:56:06;;;;;;;8.80;3.73;;;;;;;;;;5137492;27;20492;-69
2021/03/11 11:58:44;;;;;;;18.60;3.53;;;;;;;;;;5136868;27;20958;-69
2021/03/11 12:01:11;;;;;;;9.27;3.10;;;;;;;;;;5137734;27;20762;-67
2021/03/11 12:03:38;;;;;;;8.50;3.00;;;;;;;;;;5137144;27;20791;-69
2021/03/11 12:06:06;;;;;;;13.40;3.73;;;;;;;;;;5137764;27;20525;-70
2021/03/11 12:08:33;;;;;;;9.07;3.10;;;;;;;;;;5137213;27;20858;-68
2021/03/11 12:11:00;;;;;;;13.40;4.60;;;;;;;;;;5136686;27;20939;-67
2021/03/11 12:13:26;;;;;;;15.03;3.23;;;;;;;;;;5137051;27;20534;-68
2021/03/11 12:15:53;;;;;;;7.30;2.40;;;;;;;;;;5137344;27;20490;-69
2021/03/11 12:18:20;;;;;;;9.10;3.27;;;;;;;;;;5137188;27;20445;-67
2021/03/11 12:20:47;;;;;;;3.60;2.60;;;;;;;;;;5137524;27;20790;-68
2021/03/11 12:23:15;;;;;;;7.97;3.00;;;;;;;;;;5137063;27;20434;-68
2021/03/11 12:25:42;;;;;;;9.40;3.57;;;;;;;;;;5136513;27;20440;-71
2021/03/11 12:28:09;;;;;;;12.30;3.33;;;;;;;;;;5136592;27;20564;-68
2021/03/11 12:30:36;;;;;;;7.30;2.70;;;;;;;;;;5136368;27;20998;-68
2021/03/11 12:33:03;;;;;;;7.07;3.27;;;;;;;;;;5136263;27;20579;-68
2021/03/11 12:35:30;;;;;;;6.80;3.10;;;;;;;;;;5136259;27;20446;-69
2021/03/11 12:37:57;;;;;;;7.43;3.63;;;;;;;;;;5136558;27;20804;-68
2021/03/11 12:40:25;;;;;;;7.50;2.73;;;;;;;;;;5136417;27;20541;-66
2021/03/11 12:42:52;;;;;;;12.60;3.77;;;;;;;;;;5136137;27;20449;-68
2021/03/11 12:45:20;;;;;;;7.23;3.40;;;;;;;;;;5136142;27;20957;-70
2021/03/11 12:47:47;;;;;;;11.40;3.30;;;;;;;;;;5136313;27;20523;-69
2021/03/11 12:50:14;;;;;;;10.10;3.00;;;;;;;;;;5135210;27;21093;-67
2021/03/11 12:52:41;;;;;;;8.87;3.10;;;;;;;;;;5137068;27;20465;-70
2021/03/11 12:55:09;;;;;;;11.17;3.70;;;;;;;;;;5136177;27;20503;-68
2021/03/11 12:57:36;;;;;;;8.77;2.77;;;;;;;;;;5136167;27;20529;-67
2021/03/11 13:00:04;;;;;;;13.63;3.60;;;;;;;;;;5135769;27;20434;-67
2021/03/11 13:02:31;;;;;;;16.73;3.30;;;;;;;;;;5136518;27;20472;-67
2021/03/11 13:04:58;;;;;;;10.40;3.27;;;;;;;;;;5136045;27;20517;-69
2021/03/11 13:07:24;;;;;;;9.87;2.60;;;;;;;;;;5135865;27;20478;-67
2021/03/11 13:09:52;;;;;;;7.80;2.50;;;;;;;;;;5135597;27;20590;-70
2021/03/11 13:12:19;;;;;;;6.13;2.60;;;;;;;;;;5135789;27;20842;-71
2021/03/11 13:14:47;;;;;;;8.77;2.53;;;;;;;;;;5135576;27;20513;-68
2021/03/11 13:17:14;;;;;;;6.47;2.63;;;;;;;;;;5135963;27;20443;-68
2021/03/11 13:19:47;;;;;;;10.67;2.77;;;;;;;;;;5135355;27;20438;-68
2021/03/11 13:22:14;;;;;;;7.77;2.60;;;;;;;;;;5135367;27;20946;-69
2021/03/11 13:24:41;;;;;;;5.67;3.10;;;;;;;;;;5135244;27;20470;-68
2021/03/11 13:27:08;;;;;;;6.70;2.43;;;;;;;;;;5135180;27;20478;-68
2021/03/11 13:29:35;;;;;;;10.43;2.90;;;;;;;;;;5135495;27;20465;-70
2021/03/11 13:32:02;;;;;;;12.00;3.33;;;;;;;;;;5135839;27;20472;-68
2021/03/11 13:34:29;;;;;;;6.87;2.97;;;;;;;;;;5136170;27;20462;-68
2021/03/11 13:36:56;;;;;;;10.67;2.77;;;;;;;;;;5135727;27;20437;-69
2021/03/11 13:39:23;;;;;;;14.90;2.80;;;;;;;;;;5135301;27;20518;-69
2021/03/11 13:41:49;;;;;;;8.53;2.70;;;;;;;;;;5135321;27;20430;-67
2021/03/11 13:44:16;;;;;;;10.53;2.77;;;;;;;;;;5134864;27;20441;-67
2021/03/11 13:46:43;;;;;;;9.13;2.93;;;;;;;;;;5135236;27;20616;-67
2021/03/11 13:49:11;;;;;;;10.67;3.37;;;;;;;;;;5134685;27;20536;-67
2021/03/11 13:51:38;;;;;;;10.73;2.87;;;;;;;;;;5134897;27;20453;-67
2021/03/11 13:54:05;;;;;;;13.53;3.23;;;;;;;;;;5135162;27;20799;-67
2021/03/11 13:56:31;;;;;;;14.07;3.50;;;;;;;;;;5135506;27;20447;-65
2021/03/11 13:58:58;;;;;;;6.23;3.23;;;;;;;;;;5134994;27;20801;-69
2021/03/11 14:01:26;;;;;;;13.95;3.95;;;;;;;;;;5135174;27;20870;-67
2021/03/11 14:03:53;;;;;;;9.93;2.50;;;;;;;;;;5135015;27;20551;-67
2021/03/11 14:06:21;;;;;;;9.57;3.13;;;;;;;;;;5135325;27;20199;-67
2021/03/11 14:08:48;;;;;;;7.65;2.03;;;;;;;;;;5134502;27;20212;-68
2021/03/11 14:11:15;;;;;;;4.70;2.83;;;;;;;;;;5134582;27;20669;-68
2021/03/11 14:13:42;;;;;;;6.18;2.60;;;;;;;;;;5134952;27;20227;-68
2021/03/11 14:16:09;;;;;;;7.63;2.92;;;;;;;;;;5134516;27;20192;-67
2021/03/11 14:18:36;;;;;;;7.28;4.53;;;;;;;;;;5133597;27;20674;-69
2021/03/11 14:21:02;;;;;;;8.63;3.00;;;;;;;;;;5133762;27;20217;-67
2021/03/11 14:23:30;;;;;;;6.70;2.57;;;;;;;;;;5134133;27;20496;-69
2021/03/11 14:25:57;;;;;;;11.47;2.70;;;;;;;;;;5133920;27;20513;-67
2021/03/11 14:28:24;;;;;;;10.40;2.90;;;;;;;;;;5134430;27;20472;-66
2021/03/11 14:30:50;;;;;;;6.57;2.47;;;;;;;;;;5133940;27;20436;-68
2021/03/11 14:33:17;;;;;;;12.43;3.40;;;;;;;;;;5134348;27;20529;-66
2021/03/11 14:35:45;;;;;;;6.93;2.80;;;;;;;;;;5133984;27;20535;-68